createdAt,value
2022-08-25T00:00:47.705Z,98484.47
2022-08-25T00:01:51.159Z,98479.47
2022-08-25T00:02:55.931Z,98486.78
2022-08-25T00:03:58.369Z,98480.97
2022-08-25T00:04:59.837Z,98480.19
2022-08-25T00:06:01.265Z,98480.59
2022-08-25T00:07:04.759Z,98478.28
2022-08-25T00:08:06.864Z,98485.94
2022-08-25T00:09:09.125Z,98477.81
2022-08-25T00:10:10.641Z,98474.72
2022-08-25T00:11:14.470Z,98481.25
2022-08-25T00:12:15.989Z,98475.44
2022-08-25T00:13:17.414Z,98476.59
2022-08-25T00:14:24.081Z,98471.94
2022-08-25T00:15:25.526Z,98470.44
2022-08-25T00:16:28.241Z,98469.66
2022-08-25T00:17:29.619Z,98468.50
2022-08-25T00:18:31.057Z,98473.13
2022-08-25T00:19:33.895Z,98466.56
2022-08-25T00:20:35.297Z,98471.16
2022-08-25T00:21:37.330Z,98465.38
2022-08-25T00:22:38.743Z,98468.06
2022-08-25T00:23:40.411Z,98465.75
2022-08-25T00:24:41.924Z,98462.28
2022-08-25T00:25:43.284Z,98468.78
2022-08-25T00:26:45.734Z,98469.94
2022-08-25T00:27:47.176Z,98463.41
2022-08-25T00:28:48.587Z,98459.53
2022-08-25T00:29:49.935Z,98459.91
2022-08-25T00:30:51.448Z,98464.50
2022-08-25T00:31:53.249Z,98466.81
2022-08-25T00:32:57.409Z,98466.75
2022-08-25T00:33:59.054Z,98469.44
2022-08-25T00:35:00.497Z,98464.44
2022-08-25T00:36:02.009Z,98462.13
2022-08-25T00:37:04.380Z,98464.03
2022-08-25T00:38:05.873Z,98464.81
2022-08-25T00:39:08.537Z,98465.16
2022-08-25T00:40:10.302Z,98467.09
2022-08-25T00:41:13.911Z,98471.31
2022-08-25T00:42:16.262Z,98460.88
2022-08-25T00:43:18.192Z,98468.19
2022-08-25T00:44:20.198Z,98470.06
2022-08-25T00:45:22.216Z,98465.84
2022-08-25T00:46:25.409Z,98473.53
2022-08-25T00:47:26.864Z,98473.53
2022-08-25T00:48:28.257Z,98464.28
2022-08-25T00:49:29.669Z,98473.53
2022-08-25T00:50:33.133Z,98469.25
2022-08-25T00:51:38.906Z,98477.69
2022-08-25T00:52:45.251Z,98471.16
2022-08-25T00:53:47.458Z,98481.91
2022-08-25T00:55:01.896Z,98474.19
2022-08-25T00:56:06.090Z,98475.72
2022-08-25T00:57:08.886Z,98473.75
2022-08-25T00:58:16.235Z,98479.06
2022-08-25T00:59:21.461Z,98481.38
2022-08-25T01:00:31.260Z,98477.47
2022-08-25T01:01:32.709Z,98474.38
2022-08-25T01:02:34.180Z,98473.97
2022-08-25T01:03:35.629Z,98473.22
2022-08-25T01:04:37.334Z,98470.88
2022-08-25T01:05:39.701Z,98477.41
2022-08-25T01:06:42.641Z,98473.16
2022-08-25T01:07:44.725Z,98464.66
2022-08-25T01:08:46.576Z,98466.94
2022-08-25T01:09:49.946Z,98470.00
2022-08-25T01:10:51.390Z,98472.69
2022-08-25T01:11:52.823Z,98471.94
2022-08-25T01:12:58.249Z,98474.97
2022-08-25T01:14:01.297Z,98468.41
2022-08-25T01:15:05.973Z,98472.59
2022-08-25T01:16:07.592Z,98465.28
2022-08-25T01:17:09.051Z,98470.28
2022-08-25T01:18:10.547Z,98469.50
2022-08-25T01:19:15.324Z,98465.25
2022-08-25T01:20:18.756Z,98456.75
2022-08-25T01:21:22.046Z,98466.34
2022-08-25T01:22:23.423Z,98465.91
2022-08-25T01:23:25.227Z,98460.53
2022-08-25T01:24:35.124Z,98462.06
2022-08-25T01:25:51.729Z,98450.03
2022-08-25T01:26:53.265Z,98464.69
2022-08-25T01:27:55.313Z,98461.59
2022-08-25T01:28:57.221Z,98460.03
2022-08-25T01:29:58.841Z,98464.63
2022-08-25T01:31:00.287Z,98465.78
2022-08-25T01:32:04.143Z,98466.91
2022-08-25T01:33:06.326Z,98465.72
2022-08-25T01:34:08.813Z,98468.41
2022-08-25T01:35:10.176Z,98464.94
2022-08-25T01:36:11.639Z,98468.00
2022-08-25T01:37:14.009Z,98468.00
2022-08-25T01:38:15.595Z,98471.84
2022-08-25T01:39:17.015Z,98473.75
2022-08-25T01:40:18.462Z,98469.88
2022-08-25T01:41:25.639Z,98467.19
2022-08-25T01:42:37.891Z,98473.69
2022-08-25T01:43:39.316Z,98466.34
2022-08-25T01:44:42.691Z,98461.72
2022-08-25T01:45:47.470Z,98471.72
2022-08-25T01:46:48.986Z,98462.47
2022-08-25T01:47:50.392Z,98464.41
2022-08-25T01:48:51.831Z,98464.03
2022-08-25T01:49:53.568Z,98467.47
2022-08-25T01:50:55.005Z,98472.88
2022-08-25T01:51:59.932Z,98472.09
2022-08-25T01:53:13.186Z,98470.53
2022-08-25T01:54:15.138Z,98470.88
2022-08-25T01:55:16.582Z,98480.53
2022-08-25T01:56:18.045Z,98471.66
2022-08-25T01:57:20.052Z,98467.41
2022-08-25T01:58:23.019Z,98471.25
2022-08-25T01:59:24.665Z,98464.72
2022-08-25T02:00:26.090Z,98470.47
2022-08-25T02:01:27.655Z,98467.03
2022-08-25T02:02:29.147Z,98469.72
2022-08-25T02:03:33.360Z,98466.59
2022-08-25T02:04:35.127Z,98471.63
2022-08-25T02:05:36.517Z,98471.63
2022-08-25T02:06:38.701Z,98467.03
2022-08-25T02:07:43.645Z,98462.34
2022-08-25T02:08:45.057Z,98465.41
2022-08-25T02:09:46.456Z,98474.25
2022-08-25T02:10:47.881Z,98471.94
2022-08-25T02:11:49.254Z,98465.78
2022-08-25T02:12:50.829Z,98469.25
2022-08-25T02:13:55.823Z,98468.81
2022-08-25T02:14:57.353Z,98463.44
2022-08-25T02:16:00.806Z,98461.53
2022-08-25T02:17:02.787Z,98473.03
2022-08-25T02:18:04.379Z,98466.13
2022-08-25T02:19:07.358Z,98466.13
2022-08-25T02:20:08.949Z,98467.59
2022-08-25T02:21:10.322Z,98471.50
2022-08-25T02:22:11.731Z,98471.09
2022-08-25T02:23:13.482Z,98466.84
2022-08-25T02:24:15.053Z,98470.63
2022-08-25T02:25:16.734Z,98470.63
2022-08-25T02:26:18.198Z,98471.44
2022-08-25T02:27:19.888Z,98469.88
2022-08-25T02:28:21.269Z,98469.88
2022-08-25T02:29:22.696Z,98472.97
2022-08-25T02:30:24.513Z,98468.41
2022-08-25T02:31:26.261Z,98464.91
2022-08-25T02:32:27.728Z,98464.47
2022-08-25T02:33:29.218Z,98470.22
2022-08-25T02:34:30.676Z,98462.94
2022-08-25T02:35:32.088Z,98467.91
2022-08-25T02:36:33.647Z,98460.97
2022-08-25T02:37:35.701Z,98462.09
2022-08-25T02:38:37.722Z,98467.84
2022-08-25T02:39:39.154Z,98461.69
2022-08-25T02:40:40.616Z,98462.47
2022-08-25T02:41:42.443Z,98457.09
2022-08-25T02:42:44.232Z,98462.06
2022-08-25T02:43:46.226Z,98458.56
2022-08-25T02:44:47.614Z,98461.63
2022-08-25T02:45:49.070Z,98461.22
2022-08-25T02:46:50.495Z,98464.25
2022-08-25T02:47:51.945Z,98462.72
2022-08-25T02:48:53.624Z,98463.78
2022-08-25T02:49:55.079Z,98464.94
2022-08-25T02:50:59.389Z,98466.00
2022-08-25T02:52:00.802Z,98454.78
2022-08-25T02:53:02.807Z,98460.16
2022-08-25T02:54:04.950Z,98466.31
2022-08-25T02:55:07.696Z,98457.84
2022-08-25T02:56:10.270Z,98455.47
2022-08-25T02:57:11.662Z,98455.47
2022-08-25T02:58:13.841Z,98456.63
2022-08-25T02:59:15.804Z,98457.78
2022-08-25T03:00:17.461Z,98465.06
2022-08-25T03:01:20.298Z,98463.91
2022-08-25T03:02:23.772Z,98462.38
2022-08-25T03:03:25.238Z,98461.59
2022-08-25T03:04:26.766Z,98460.81
2022-08-25T03:05:28.360Z,98460.00
2022-08-25T03:06:29.802Z,98460.00
2022-08-25T03:07:31.286Z,98462.69
2022-08-25T03:08:37.247Z,98454.66
2022-08-25T03:09:38.687Z,98453.47
2022-08-25T03:10:40.181Z,98451.91
2022-08-25T03:11:41.597Z,98452.69
2022-08-25T03:12:42.984Z,98459.53
2022-08-25T03:13:44.970Z,98451.84
2022-08-25T03:14:46.400Z,98452.22
2022-08-25T03:15:48.024Z,98454.91
2022-08-25T03:16:50.806Z,98453.31
2022-08-25T03:17:52.290Z,98452.56
2022-08-25T03:18:53.710Z,98447.91
2022-08-25T03:19:56.683Z,98447.91
2022-08-25T03:20:58.275Z,98450.94
2022-08-25T03:21:59.770Z,98451.75
2022-08-25T03:23:02.200Z,98451.75
2022-08-25T03:24:04.139Z,98448.63
2022-08-25T03:25:05.884Z,98451.31
2022-08-25T03:26:07.926Z,98452.44
2022-08-25T03:27:09.286Z,98447.06
2022-08-25T03:28:13.210Z,98450.91
2022-08-25T03:29:14.606Z,98451.22
2022-08-25T03:30:16.001Z,98455.81
2022-08-25T03:31:17.499Z,98454.28
2022-08-25T03:32:18.913Z,98456.19
2022-08-25T03:33:20.287Z,98451.97
2022-08-25T03:34:22.577Z,98454.22
2022-08-25T03:35:24.052Z,98461.50
2022-08-25T03:36:25.614Z,98454.22
2022-08-25T03:37:27.330Z,98455.78
2022-08-25T03:38:28.711Z,98451.88
2022-08-25T03:39:30.062Z,98464.53
2022-08-25T03:40:31.790Z,98463.78
2022-08-25T03:41:33.260Z,98453.41
2022-08-25T03:42:35.181Z,98454.16
2022-08-25T03:43:36.638Z,98457.63
2022-08-25T03:44:37.999Z,98458.78
2022-08-25T03:45:40.563Z,98452.59
2022-08-25T03:46:49.469Z,98458.78
2022-08-25T03:47:51.906Z,98454.16
2022-08-25T03:48:53.765Z,98458.78
2022-08-25T03:49:55.231Z,98448.03
2022-08-25T03:50:56.647Z,98452.25
2022-08-25T03:51:58.093Z,98444.19
2022-08-25T03:52:59.572Z,98445.34
2022-08-25T03:54:01.656Z,98442.66
2022-08-25T03:55:04.104Z,98444.91
2022-08-25T03:56:05.681Z,98451.03
2022-08-25T03:57:07.065Z,98441.81
2022-08-25T03:58:08.687Z,98456.78
2022-08-25T03:59:10.136Z,98444.50
2022-08-25T04:00:11.963Z,98443.72
2022-08-25T04:01:13.885Z,98442.16
2022-08-25T04:02:16.973Z,98442.91
2022-08-25T04:03:18.377Z,98444.06
2022-08-25T04:04:19.773Z,98447.50
2022-08-25T04:05:21.192Z,98444.84
2022-08-25T04:06:22.626Z,98442.50
2022-08-25T04:07:24.061Z,98437.13
2022-08-25T04:08:25.452Z,98439.41
2022-08-25T04:09:26.808Z,98438.28
2022-08-25T04:10:31.894Z,98439.06
2022-08-25T04:11:33.514Z,98435.59
2022-08-25T04:12:34.992Z,98436.72
2022-08-25T04:13:36.581Z,98439.41
2022-08-25T04:14:37.977Z,98444.00
2022-08-25T04:15:42.285Z,98442.09
2022-08-25T04:16:44.105Z,98437.84
2022-08-25T04:17:45.685Z,98437.06
2022-08-25T04:18:48.449Z,98433.59
2022-08-25T04:19:49.864Z,98439.75
2022-08-25T04:20:51.261Z,98439.34
2022-08-25T04:21:56.540Z,98439.72
2022-08-25T04:22:58.253Z,98439.63
2022-08-25T04:23:59.639Z,98428.03
2022-08-25T04:25:01.089Z,98438.78
2022-08-25T04:26:02.751Z,98437.25
2022-08-25T04:27:04.191Z,98432.19
2022-08-25T04:28:05.780Z,98441.41
2022-08-25T04:29:08.263Z,98443.31
2022-08-25T04:30:10.010Z,98446.00
2022-08-25T04:31:12.288Z,98437.53
2022-08-25T04:32:13.861Z,98442.13
2022-08-25T04:33:15.295Z,98445.13
2022-08-25T04:34:30.434Z,98447.06
2022-08-25T04:35:32.736Z,98443.59
2022-08-25T04:36:34.545Z,98445.91
2022-08-25T04:37:36.269Z,98442.13
2022-08-25T04:38:38.316Z,98449.41
2022-08-25T04:39:39.789Z,98441.34
2022-08-25T04:40:41.187Z,98442.47
2022-08-25T04:41:42.609Z,98439.78
2022-08-25T04:42:44.062Z,98439.44
2022-08-25T04:43:48.774Z,98441.34
2022-08-25T04:44:50.223Z,98441.34
2022-08-25T04:45:51.745Z,98444.03
2022-08-25T04:46:53.312Z,98441.75
2022-08-25T04:48:05.419Z,98444.09
2022-08-25T04:49:06.993Z,98438.72
2022-08-25T04:50:08.854Z,98439.94
2022-08-25T04:51:12.089Z,98436.88
2022-08-25T04:52:14.427Z,98441.53
2022-08-25T04:53:16.361Z,98441.94
2022-08-25T04:54:18.335Z,98446.97
2022-08-25T04:55:19.758Z,98439.34
2022-08-25T04:56:22.688Z,98440.53
2022-08-25T04:57:24.054Z,98442.09
2022-08-25T04:58:25.552Z,98446.75
2022-08-25T04:59:29.335Z,98448.72
2022-08-25T05:00:34.038Z,98450.72
2022-08-25T05:01:35.578Z,98443.84
2022-08-25T05:02:37.585Z,98448.91
2022-08-25T05:03:39.002Z,98452.00
2022-08-25T05:04:40.403Z,98459.34
2022-08-25T05:05:41.983Z,98454.06
2022-08-25T05:06:43.388Z,98457.59
2022-08-25T05:07:46.427Z,98458.78
2022-08-25T05:08:47.946Z,98451.16
2022-08-25T05:09:49.299Z,98460.00
2022-08-25T05:10:50.705Z,98459.69
2022-08-25T05:11:53.592Z,98459.75
2022-08-25T05:12:55.098Z,98452.88
2022-08-25T05:13:57.229Z,98451.72
2022-08-25T05:14:59.093Z,98452.16
2022-08-25T05:16:00.712Z,98455.63
2022-08-25T05:17:02.498Z,98456.41
2022-08-25T05:18:04.060Z,98455.25
2022-08-25T05:19:05.765Z,98454.88
2022-08-25T05:20:07.419Z,98454.09
2022-08-25T05:21:10.669Z,98445.72
2022-08-25T05:22:12.140Z,98442.66
2022-08-25T05:23:13.633Z,98449.63
2022-08-25T05:24:15.247Z,98440.84
2022-08-25T05:25:18.332Z,98439.06
2022-08-25T05:26:21.093Z,98439.31
2022-08-25T05:27:22.558Z,98437.22
2022-08-25T05:28:24.002Z,98438.56
2022-08-25T05:29:25.720Z,98442.47
2022-08-25T05:30:27.196Z,98439.13
2022-08-25T05:31:28.725Z,98438.38
2022-08-25T05:32:30.122Z,98439.22
2022-08-25T05:33:32.563Z,98442.72
2022-08-25T05:34:35.574Z,98451.25
2022-08-25T05:35:37.643Z,98450.16
2022-08-25T05:36:39.074Z,98441.72
2022-08-25T05:37:40.484Z,98443.63
2022-08-25T05:38:42.097Z,98443.28
2022-08-25T05:39:43.512Z,98442.91
2022-08-25T05:40:45.157Z,98439.16
2022-08-25T05:41:46.677Z,98436.47
2022-08-25T05:42:48.127Z,98436.50
2022-08-25T05:43:49.690Z,98436.53
2022-08-25T05:44:51.290Z,98440.06
2022-08-25T05:45:56.672Z,98439.34
2022-08-25T05:46:58.141Z,98437.44
2022-08-25T05:47:59.659Z,98433.94
2022-08-25T05:49:01.114Z,98431.97
2022-08-25T05:50:02.615Z,98430.06
2022-08-25T05:51:05.449Z,98429.66
2022-08-25T05:52:06.804Z,98432.34
2022-08-25T05:53:08.300Z,98429.75
2022-08-25T05:54:09.805Z,98425.91
2022-08-25T05:55:11.352Z,98424.75
2022-08-25T05:56:13.615Z,98422.41
2022-08-25T05:57:15.094Z,98424.38
2022-08-25T05:58:16.704Z,98417.03
2022-08-25T05:59:18.123Z,98425.53
2022-08-25T06:00:19.627Z,98419.84
2022-08-25T06:01:28.690Z,98420.97
2022-08-25T06:02:30.094Z,98419.03
2022-08-25T06:03:31.568Z,98417.13
2022-08-25T06:04:33.041Z,98417.16
2022-08-25T06:05:34.583Z,98414.00
2022-08-25T06:06:36.117Z,98418.63
2022-08-25T06:07:37.567Z,98420.97
2022-08-25T06:08:39.116Z,98415.97
2022-08-25T06:09:42.036Z,98420.63
2022-08-25T06:10:43.518Z,98418.31
2022-08-25T06:11:44.944Z,98417.63
2022-08-25T06:12:46.772Z,98419.97
2022-08-25T06:13:48.488Z,98417.25
2022-08-25T06:14:50.090Z,98421.94
2022-08-25T06:15:56.940Z,98423.88
2022-08-25T06:16:58.394Z,98423.47
2022-08-25T06:18:01.770Z,98424.69
2022-08-25T06:19:03.484Z,98429.34
2022-08-25T06:20:05.170Z,98426.31
2022-08-25T06:21:12.690Z,98431.38
2022-08-25T06:22:14.145Z,98427.53
2022-08-25T06:23:15.930Z,98436.44
2022-08-25T06:24:17.295Z,98432.66
2022-08-25T06:25:20.025Z,98426.91
2022-08-25T06:26:21.733Z,98430.44
2022-08-25T06:27:23.128Z,98437.81
2022-08-25T06:28:24.529Z,98434.38
2022-08-25T06:29:26.402Z,98434.03
2022-08-25T06:30:28.638Z,98428.31
2022-08-25T06:31:30.761Z,98432.66
2022-08-25T06:32:32.667Z,98431.63
2022-08-25T06:33:34.297Z,98426.00
2022-08-25T06:34:35.858Z,98433.47
2022-08-25T06:35:37.565Z,98429.31
2022-08-25T06:36:39.622Z,98434.38
2022-08-25T06:37:41.028Z,98430.97
2022-08-25T06:38:42.766Z,98422.78
2022-08-25T06:39:44.214Z,98430.34
2022-08-25T06:40:47.305Z,98424.38
2022-08-25T06:41:55.716Z,98424.84
2022-08-25T06:43:00.313Z,98425.72
2022-08-25T06:44:05.332Z,98422.63
2022-08-25T06:45:07.742Z,98419.28
2022-08-25T06:46:09.170Z,98416.47
2022-08-25T06:47:10.864Z,98421.28
2022-08-25T06:48:12.289Z,98419.34
2022-08-25T06:49:13.881Z,98421.47
2022-08-25T06:50:15.405Z,98409.03
2022-08-25T06:51:18.558Z,98420.75
2022-08-25T06:52:19.961Z,98422.97
2022-08-25T06:53:21.385Z,98417.75
2022-08-25T06:54:22.850Z,98419.78
2022-08-25T06:55:24.215Z,98419.16
2022-08-25T06:56:25.642Z,98413.59
2022-08-25T06:57:28.090Z,98416.78
2022-08-25T06:58:29.667Z,98410.56
2022-08-25T06:59:32.185Z,98418.72
2022-08-25T07:00:34.126Z,98419.78
2022-08-25T07:01:35.713Z,98423.97
2022-08-25T07:02:37.317Z,98422.56
2022-08-25T07:03:39.183Z,98415.88
2022-08-25T07:04:40.614Z,98418.66
2022-08-25T07:05:43.879Z,98416.41
2022-08-25T07:06:45.634Z,98411.38
2022-08-25T07:07:47.136Z,98410.81
2022-08-25T07:08:48.564Z,98408.78
2022-08-25T07:09:50.014Z,98402.59
2022-08-25T07:10:51.431Z,98408.69
2022-08-25T07:11:52.870Z,98402.78
2022-08-25T07:12:54.353Z,98400.94
2022-08-25T07:13:55.829Z,98409.28
2022-08-25T07:15:17.179Z,98405.63
2022-08-25T07:16:19.939Z,98411.53
2022-08-25T07:17:22.237Z,98408.06
2022-08-25T07:18:24.727Z,98405.84
2022-08-25T07:19:26.188Z,98402.84
2022-08-25T07:20:27.794Z,98401.41
2022-08-25T07:21:33.674Z,98407.56
2022-08-25T07:22:37.138Z,98403.38
2022-08-25T07:23:38.952Z,98407.28
2022-08-25T07:24:40.614Z,98403.81
2022-08-25T07:25:42.032Z,98403.59
2022-08-25T07:26:43.845Z,98404.41
2022-08-25T07:27:45.678Z,98407.88
2022-08-25T07:28:47.614Z,98405.28
2022-08-25T07:29:49.141Z,98402.66
2022-08-25T07:30:51.605Z,98401.50
2022-08-25T07:31:53.433Z,98397.25
2022-08-25T07:34:16.734Z,98397.97
2022-08-25T07:35:18.938Z,98395.25
2022-08-25T07:36:20.985Z,98396.16
2022-08-25T07:37:38.271Z,98392.75
2022-08-25T07:38:45.301Z,98395.09
2022-08-25T07:39:47.317Z,98397.78
2022-08-25T07:40:53.309Z,98392.78
2022-08-25T07:41:54.901Z,98392.78
2022-08-25T07:42:57.388Z,98393.53
2022-08-25T07:43:58.796Z,98400.84
2022-08-25T07:45:00.215Z,98396.56
2022-08-25T07:46:06.171Z,98397.75
2022-08-25T07:47:07.579Z,98393.56
2022-08-25T07:48:10.918Z,98394.81
2022-08-25T07:49:16.857Z,98395.94
2022-08-25T07:50:18.813Z,98396.59
2022-08-25T07:51:20.254Z,98400.41
2022-08-25T07:52:21.803Z,98397.66
2022-08-25T07:53:23.207Z,98405.03
2022-08-25T07:54:24.805Z,98399.06
2022-08-25T07:55:36.417Z,98401.31
2022-08-25T07:56:38.375Z,98404.44
2022-08-25T07:57:40.490Z,98406.38
2022-08-25T07:58:42.845Z,98401.00
2022-08-25T07:59:45.686Z,98406.06
2022-08-25T08:00:48.016Z,98406.47
2022-08-25T08:01:49.530Z,98399.53
2022-08-25T08:02:50.983Z,98405.41
2022-08-25T08:03:52.581Z,98415.13
2022-08-25T08:04:54.690Z,98410.06
2022-08-25T08:05:56.189Z,98405.13
2022-08-25T08:06:57.574Z,98404.31
2022-08-25T08:07:59.076Z,98407.75
2022-08-25T08:09:01.594Z,98408.09
2022-08-25T08:10:32.804Z,98406.88
2022-08-25T08:11:27.159Z,98402.66
2022-08-25T08:12:28.733Z,98406.16
2022-08-25T08:13:30.206Z,98400.31
2022-08-25T08:14:31.613Z,98392.50
2022-08-25T08:15:33.096Z,98401.75
2022-08-25T08:16:34.614Z,98403.31
2022-08-25T08:17:36.090Z,98401.00
2022-08-25T08:18:38.147Z,98408.41
2022-08-25T08:19:44.935Z,98403.34
2022-08-25T08:20:47.806Z,98408.06
2022-08-25T08:21:49.202Z,98405.72
2022-08-25T08:22:52.545Z,98406.56
2022-08-25T08:23:58.582Z,98398.41
2022-08-25T08:25:01.490Z,98403.00
2022-08-25T08:26:02.899Z,98400.63
2022-08-25T08:27:06.638Z,98400.25
2022-08-25T08:28:08.390Z,98395.94
2022-08-25T08:29:12.484Z,98397.53
2022-08-25T08:30:14.198Z,98394.00
2022-08-25T08:31:15.642Z,98400.97
2022-08-25T08:32:17.076Z,98393.97
2022-08-25T08:33:18.478Z,98393.56
2022-08-25T08:34:24.800Z,98398.22
2022-08-25T08:35:26.549Z,98397.44
2022-08-25T08:36:28.248Z,98394.34
2022-08-25T08:37:31.661Z,98397.88
2022-08-25T08:38:33.853Z,98397.50
2022-08-25T08:39:37.033Z,98391.25
2022-08-25T08:40:54.911Z,98395.16
2022-08-25T08:42:16.881Z,98386.97
2022-08-25T08:43:19.151Z,98390.56
2022-08-25T08:44:23.553Z,98388.22
2022-08-25T08:45:29.889Z,98394.81
2022-08-25T08:46:39.565Z,98384.31
2022-08-25T08:47:47.104Z,98388.16
2022-08-25T08:48:48.992Z,98392.75
2022-08-25T08:50:04.206Z,98379.88
2022-08-25T08:51:23.088Z,98395.78
2022-08-25T08:52:33.134Z,98386.47
2022-08-25T08:53:54.789Z,98387.59
2022-08-25T08:55:01.227Z,98374.31
2022-08-25T08:56:11.787Z,98382.84
2022-08-25T08:57:19.684Z,98381.72
2022-08-25T08:58:26.245Z,98373.56
2022-08-25T08:59:31.065Z,98372.03
2022-08-25T09:00:33.066Z,98381.72
2022-08-25T09:01:39.106Z,98375.06
2022-08-25T09:02:52.039Z,98375.44
2022-08-25T09:03:59.649Z,98370.31
2022-08-25T09:05:02.942Z,98373.34
2022-08-25T09:06:17.552Z,98378.03
2022-08-25T09:07:21.488Z,98374.59
2022-08-25T09:08:22.903Z,98379.56
2022-08-25T09:09:35.702Z,98376.13
2022-08-25T09:10:48.195Z,98369.53
2022-08-25T09:11:55.443Z,98371.81
2022-08-25T09:13:12.615Z,98374.81
2022-08-25T09:14:19.430Z,98366.69
2022-08-25T09:15:41.323Z,98367.00
2022-08-25T09:16:52.109Z,98360.03
2022-08-25T09:17:59.397Z,98361.88
2022-08-25T09:19:21.266Z,98359.47
2022-08-25T09:20:24.998Z,98365.53
2022-08-25T09:21:44.840Z,98364.72
2022-08-25T09:23:13.168Z,98371.22
2022-08-25T09:24:17.712Z,98363.09
2022-08-25T09:25:39.622Z,98363.81
2022-08-25T09:26:53.427Z,98364.50
2022-08-25T09:27:57.717Z,98350.09
2022-08-25T09:29:16.226Z,98351.91
2022-08-25T09:30:21.026Z,98352.31
2022-08-25T09:31:30.125Z,98354.69
2022-08-25T09:32:34.227Z,98349.63
2022-08-25T09:33:37.019Z,98344.53
2022-08-25T09:34:38.453Z,98346.00
2022-08-25T09:35:40.594Z,98345.94
2022-08-25T09:36:42.076Z,98349.69
2022-08-25T09:37:43.551Z,98346.91
2022-08-25T09:38:45.100Z,98344.88
2022-08-25T09:39:46.591Z,98348.25
2022-08-25T09:40:51.133Z,98343.22
2022-08-25T09:41:54.776Z,98347.53
2022-08-25T09:42:58.678Z,98341.25
2022-08-25T09:44:00.215Z,98345.94
2022-08-25T09:45:01.579Z,98340.94
2022-08-25T09:46:09.241Z,98345.56
2022-08-25T09:47:28.644Z,98340.59
2022-08-25T09:48:33.145Z,98342.94
2022-08-25T09:49:41.661Z,98333.63
2022-08-25T09:50:46.657Z,98338.66
2022-08-25T09:51:48.339Z,98337.50
2022-08-25T09:52:54.191Z,98334.22
2022-08-25T09:53:58.760Z,98339.25
2022-08-25T09:55:05.971Z,98340.22
2022-08-25T09:56:09.936Z,98328.13
2022-08-25T09:57:31.790Z,98327.66
2022-08-25T09:58:33.565Z,98328.06
2022-08-25T09:59:36.169Z,98325.03
2022-08-25T10:00:37.656Z,98327.28
2022-08-25T10:01:47.490Z,98333.00
2022-08-25T10:03:10.219Z,98328.56
2022-08-25T10:04:19.014Z,98320.34
2022-08-25T10:05:23.786Z,98326.44
2022-08-25T10:06:27.174Z,98331.03
2022-08-25T10:07:28.542Z,98322.72
2022-08-25T10:08:39.555Z,98320.31
2022-08-25T10:09:42.524Z,98318.97
2022-08-25T10:10:45.632Z,98324.06
2022-08-25T10:11:47.445Z,98317.00
2022-08-25T10:12:51.342Z,98320.66
2022-08-25T10:14:01.100Z,98323.69
2022-08-25T10:15:29.661Z,98322.63
2022-08-25T10:16:36.019Z,98318.56
2022-08-25T10:17:38.052Z,98319.00
2022-08-25T10:18:40.586Z,98316.38
2022-08-25T10:19:44.301Z,98318.00
2022-08-25T10:21:00.241Z,98312.34
2022-08-25T10:22:20.190Z,98317.09
2022-08-25T10:23:26.844Z,98310.06
2022-08-25T10:24:28.270Z,98310.56
2022-08-25T10:25:31.056Z,98306.19
2022-08-25T10:26:41.577Z,98309.19
2022-08-25T10:27:45.721Z,98307.78
2022-08-25T10:28:49.861Z,98301.84
2022-08-25T10:30:00.481Z,98307.16
2022-08-25T10:31:10.138Z,98301.28
2022-08-25T10:32:18.715Z,98302.84
2022-08-25T10:33:32.157Z,98303.69
2022-08-25T10:34:51.629Z,98298.03
2022-08-25T10:36:05.049Z,98290.97
2022-08-25T10:37:23.708Z,98294.03
2022-08-25T10:38:36.136Z,98287.53
2022-08-25T10:39:42.423Z,98287.53
2022-08-25T10:41:10.256Z,98282.59
2022-08-25T10:42:17.702Z,98285.47
2022-08-25T10:43:23.816Z,98286.16
2022-08-25T10:44:50.536Z,98278.06
2022-08-25T10:46:07.027Z,98282.31
2022-08-25T10:47:11.376Z,98276.53
2022-08-25T10:48:20.840Z,98273.69
2022-08-25T10:49:29.653Z,98278.56
2022-08-25T10:50:45.303Z,98266.81
2022-08-25T10:52:16.259Z,98269.38
2022-08-25T10:53:23.579Z,98266.28
2022-08-25T10:54:24.994Z,98265.09
2022-08-25T10:55:34.204Z,98257.84
2022-08-25T10:56:45.389Z,98259.47
2022-08-25T10:57:46.767Z,98259.13
2022-08-25T10:59:09.268Z,98270.25
2022-08-25T11:00:18.711Z,98260.41
2022-08-25T11:01:43.624Z,98262.06
2022-08-25T11:03:01.476Z,98260.44
2022-08-25T11:04:06.494Z,98255.88
2022-08-25T11:05:13.844Z,98254.38
2022-08-25T11:06:24.865Z,98253.47
2022-08-25T11:07:31.396Z,98237.47
2022-08-25T11:08:36.411Z,98246.50
2022-08-25T11:09:40.168Z,98249.16
2022-08-25T11:10:44.590Z,98251.25
2022-08-25T11:11:45.966Z,98245.88
2022-08-25T11:12:54.230Z,98247.31
2022-08-25T11:14:00.154Z,98242.53
2022-08-25T11:15:10.231Z,98240.13
2022-08-25T11:16:17.490Z,98242.06
2022-08-25T11:17:24.713Z,98236.50
2022-08-25T11:18:29.205Z,98238.72
2022-08-25T11:19:30.583Z,98244.94
2022-08-25T11:20:41.996Z,98240.22
2022-08-25T11:21:52.233Z,98234.78
2022-08-25T11:22:59.650Z,98234.31
2022-08-25T11:24:19.404Z,98234.56
2022-08-25T11:25:26.122Z,98236.25
2022-08-25T11:26:32.878Z,98239.50
2022-08-25T11:27:42.966Z,98230.66
2022-08-25T11:29:05.994Z,98230.88
2022-08-25T11:30:14.195Z,98232.34
2022-08-25T11:31:16.954Z,98230.81
2022-08-25T11:32:19.569Z,98230.84
2022-08-25T11:33:24.296Z,98230.81
2022-08-25T11:34:27.720Z,98231.72
2022-08-25T11:35:42.345Z,98237.41
2022-08-25T11:36:50.869Z,98229.53
2022-08-25T11:38:10.667Z,98226.47
2022-08-25T11:39:34.486Z,98226.25
2022-08-25T11:40:55.096Z,98228.75
2022-08-25T11:42:18.646Z,98228.44
2022-08-25T11:43:40.546Z,98217.19
2022-08-25T11:44:53.310Z,98224.03
2022-08-25T11:46:07.697Z,98214.66
2022-08-25T11:47:23.751Z,98223.72
2022-08-25T11:48:34.506Z,98218.59
2022-08-25T11:49:36.025Z,98221.34
2022-08-25T11:50:56.787Z,98220.69
2022-08-25T11:52:03.119Z,98214.09
2022-08-25T11:53:11.327Z,98220.63
2022-08-25T11:54:21.973Z,98214.53
2022-08-25T11:55:29.050Z,98218.91
2022-08-25T11:56:34.713Z,98220.53
2022-08-25T11:57:36.721Z,98217.19
2022-08-25T11:58:46.566Z,98214.75
2022-08-25T11:59:51.093Z,98218.66
2022-08-25T12:00:53.015Z,98214.06
2022-08-25T12:01:54.375Z,98212.06
2022-08-25T12:03:00.847Z,98215.34
2022-08-25T12:04:30.855Z,98220.38
2022-08-25T12:05:52.762Z,98216.13
2022-08-25T12:07:06.192Z,98217.91
2022-08-25T12:08:08.501Z,98215.72
2022-08-25T12:09:10.762Z,98212.53
2022-08-25T12:10:13.994Z,98210.63
2022-08-25T12:11:35.319Z,98210.06
2022-08-25T12:12:42.556Z,98209.50
2022-08-25T12:13:45.816Z,98214.22
2022-08-25T12:14:47.494Z,98201.69
2022-08-25T12:15:49.675Z,98207.81
2022-08-25T12:16:52.381Z,98198.75
2022-08-25T12:18:09.294Z,98207.72
2022-08-25T12:19:29.503Z,98209.78
2022-08-25T12:21:03.354Z,98209.56
2022-08-25T12:22:04.796Z,98203.38
2022-08-25T12:23:06.789Z,98206.53
2022-08-25T12:24:10.761Z,98204.31
2022-08-25T12:25:18.391Z,98203.75
2022-08-25T12:26:19.826Z,98207.16
2022-08-25T12:27:39.809Z,98206.69
2022-08-25T12:29:10.629Z,98200.81
2022-08-25T12:30:27.945Z,98204.97
2022-08-25T12:31:41.050Z,98203.66
2022-08-25T12:33:01.245Z,98199.00
2022-08-25T12:34:14.282Z,98193.00
2022-08-25T12:35:15.620Z,98194.56
2022-08-25T12:36:29.283Z,98197.47
2022-08-25T12:37:30.774Z,98195.09
2022-08-25T12:38:52.362Z,98194.75
2022-08-25T12:39:59.719Z,98193.13